Time;durP1;ratioP1;P1;durP2;ratioP2;P2;SDS_P1;SDS_P2;PMS_P1;PMS_P2;Temp;Humidity;BMP_temperature;BMP_pressure;BME280_temperature;BME280_humidity;BME280_pressure;Samples;Min_cycle;Max_cycle;Signal;HPM_P1;HPM_P2
2024/02/09 00:00:40;;;;;;;3.00;2.37;;;2.70;99.90;;;;;;5010612;28;20475;-59
2024/02/09 00:03:10;;;;;;;2.63;2.43;;;2.70;99.90;;;;;;5014234;28;20488;-60
2024/02/09 00:05:39;;;;;;;2.80;2.60;;;2.60;99.90;;;;;;5015338;28;21074;-60
2024/02/09 00:08:07;;;;;;;5.20;2.80;;;2.60;99.90;;;;;;5015071;28;20976;-61
2024/02/09 00:10:37;;;;;;;3.83;2.60;;;2.60;99.90;;;;;;5014159;28;20467;-61
2024/02/09 00:13:12;;;;;;;3.30;2.73;;;2.60;99.90;;;;;;5012946;28;20490;-61
2024/02/09 00:15:42;;;;;;;3.03;2.60;;;2.60;99.90;;;;;;5014712;28;21185;-60
2024/02/09 00:18:11;;;;;;;4.60;2.70;;;2.70;99.90;;;;;;5012725;28;20475;-60
2024/02/09 00:20:39;;;;;;;3.43;2.80;;;2.60;99.90;;;;;;5013965;28;20567;-60
2024/02/09 00:23:08;;;;;;;3.93;2.83;;;2.60;99.90;;;;;;5013585;28;20472;-60
2024/02/09 00:25:38;;;;;;;3.13;2.83;;;2.60;99.90;;;;;;5012928;28;20500;-59
2024/02/09 00:28:08;;;;;;;2.83;2.63;;;2.60;99.90;;;;;;5012384;28;20533;-59
2024/02/09 00:30:38;;;;;;;2.93;2.43;;;2.60;99.90;;;;;;5015109;28;20854;-60
2024/02/09 00:33:08;;;;;;;3.60;3.23;;;2.60;99.90;;;;;;5008790;28;20471;-60
2024/02/09 00:35:36;;;;;;;4.23;3.30;;;2.70;99.90;;;;;;5013005;28;20503;-61
2024/02/09 00:38:04;;;;;;;3.30;3.00;;;2.60;99.90;;;;;;5010717;28;20537;-62
2024/02/09 00:40:33;;;;;;;4.17;3.30;;;2.70;99.90;;;;;;5009890;28;20472;-60
2024/02/09 00:43:03;;;;;;;3.67;3.30;;;2.60;99.90;;;;;;5015252;28;20883;-60
2024/02/09 00:45:34;;;;;;;3.40;3.10;;;2.60;99.90;;;;;;5013179;28;20523;-60
2024/02/09 00:48:02;;;;;;;4.80;4.30;;;2.60;99.90;;;;;;5009303;28;20480;-60
2024/02/09 00:50:31;;;;;;;3.90;3.60;;;2.60;99.90;;;;;;5012445;28;20464;-60
2024/02/09 00:53:04;;;;;;;4.80;4.00;;;2.60;99.90;;;;;;5013020;28;20559;-60
2024/02/09 00:55:32;;;;;;;4.03;3.30;;;2.60;99.90;;;;;;5013729;28;20499;-59
2024/02/09 00:58:02;;;;;;;4.67;3.90;;;2.70;99.90;;;;;;5013453;28;20478;-60
2024/02/09 01:00:31;;;;;;;4.90;4.40;;;2.60;99.90;;;;;;5012080;28;20558;-60
2024/02/09 01:03:02;;;;;;;5.70;4.40;;;2.60;99.90;;;;;;5013036;28;20478;-60
2024/02/09 01:05:32;;;;;;;4.80;4.40;;;2.60;99.90;;;;;;5012306;28;20571;-60
2024/02/09 01:08:01;;;;;;;4.80;4.40;;;2.60;99.90;;;;;;5010455;28;21128;-60
2024/02/09 01:10:31;;;;;;;5.53;5.03;;;2.60;99.90;;;;;;5017319;28;20480;-60
2024/02/09 02:46:34;;;;;;;4.80;3.83;;;2.30;99.90;;;;;;5013236;28;20498;-59
2024/02/09 03:05:39;;;;;;;4.30;3.90;;;2.30;99.90;;;;;;5013883;28;20577;-60
2024/02/09 03:08:08;;;;;;;4.33;3.93;;;2.30;99.90;;;;;;5014984;28;20479;-60
2024/02/09 03:11:00;;;;;;;4.70;4.03;;;2.30;99.90;;;;;;5016183;28;20497;-60
2024/02/09 03:13:28;;;;;;;5.00;4.23;;;2.30;99.90;;;;;;5033883;28;20471;-60
2024/02/09 03:15:56;;;;;;;6.10;4.43;;;2.30;99.90;;;;;;5034941;28;20864;-61
2024/02/09 03:18:26;;;;;;;4.87;3.70;;;2.30;99.90;;;;;;5032282;28;20467;-60
2024/02/09 03:20:55;;;;;;;4.13;3.73;;;2.30;99.90;;;;;;5035216;28;21008;-60
2024/02/09 03:23:23;;;;;;;4.10;3.70;;;2.30;99.90;;;;;;5036454;28;20554;-60
2024/02/09 03:25:52;;;;;;;4.53;4.13;;;2.30;99.90;;;;;;5030622;28;20486;-60
2024/02/09 03:28:21;;;;;;;4.03;3.63;;;2.30;99.90;;;;;;5032804;28;20487;-60
2024/02/09 03:30:49;;;;;;;4.87;4.30;;;2.30;99.90;;;;;;5032393;28;20498;-58
2024/02/09 03:33:17;;;;;;;4.80;4.40;;;2.30;99.90;;;;;;5036424;28;20466;-60
2024/02/09 03:35:45;;;;;;;4.67;4.17;;;2.30;99.90;;;;;;5033628;28;20548;-61
2024/02/09 03:38:13;;;;;;;4.70;3.80;;;2.30;99.90;;;;;;5033349;28;20470;-60
2024/02/09 03:40:42;;;;;;;4.47;4.07;;;2.30;99.90;;;;;;5035420;28;20479;-61
2024/02/09 03:43:10;;;;;;;5.13;4.63;;;2.30;99.90;;;;;;5036216;28;20525;-61
2024/02/09 03:45:41;;;;;;;4.77;4.37;;;2.30;99.90;;;;;;5029624;28;21100;-60
2024/02/09 03:48:09;;;;;;;4.60;3.80;;;2.30;99.90;;;;;;5033925;28;20502;-61
2024/02/09 03:50:38;;;;;;;5.23;4.03;;;2.20;99.90;;;;;;5035343;28;20520;-60
2024/02/09 03:53:06;;;;;;;3.80;3.43;;;2.30;99.90;;;;;;5032839;28;20510;-59
2024/02/09 03:55:39;;;;;;;4.53;4.13;;;2.30;99.90;;;;;;5035453;28;20865;-60
2024/02/09 03:58:08;;;;;;;4.83;3.60;;;2.30;99.90;;;;;;5029812;28;20473;-59
2024/02/09 04:00:35;;;;;;;4.10;3.73;;;2.30;99.90;;;;;;5034812;28;20584;-60
2024/02/09 04:03:05;;;;;;;4.40;4.00;;;2.30;99.90;;;;;;5036180;28;20470;-60
2024/02/09 04:05:33;;;;;;;3.90;3.60;;;2.30;99.90;;;;;;5030365;28;20486;-60
2024/02/09 04:08:04;;;;;;;4.03;3.60;;;2.30;99.90;;;;;;5033363;28;21013;-60
2024/02/09 04:10:32;;;;;;;5.23;3.93;;;2.30;99.90;;;;;;5032031;28;21048;-59
2024/02/09 04:13:12;;;;;;;5.00;4.40;;;2.30;99.90;;;;;;5031119;28;20471;-61
2024/02/09 04:15:41;;;;;;;4.60;4.20;;;2.30;99.90;;;;;;5029255;28;21358;-61
2024/02/09 04:18:10;;;;;;;4.10;3.80;;;2.20;99.90;;;;;;5030616;28;21284;-60
2024/02/09 04:20:39;;;;;;;4.33;3.93;;;2.20;99.90;;;;;;5029265;28;23744;-60
2024/02/09 04:23:10;;;;;;;4.57;3.80;;;2.20;99.90;;;;;;5033274;28;20466;-60
2024/02/09 04:25:40;;;;;;;3.93;3.63;;;2.20;99.90;;;;;;5034114;28;20949;-60
2024/02/09 04:28:09;;;;;;;4.33;3.93;;;2.20;99.90;;;;;;5030508;28;20503;-60
2024/02/09 04:30:37;;;;;;;4.37;3.97;;;2.20;99.90;;;;;;5030075;28;20566;-61
2024/02/09 04:33:09;;;;;;;5.27;4.43;;;2.20;99.90;;;;;;5028722;28;20558;-61
2024/02/09 04:35:41;;;;;;;4.53;3.93;;;2.20;99.90;;;;;;5032171;28;20494;-60
2024/02/09 04:38:09;;;;;;;5.40;4.13;;;2.20;99.90;;;;;;5029772;28;20495;-59
2024/02/09 04:40:37;;;;;;;4.40;4.00;;;2.20;99.90;;;;;;5032122;28;20465;-60
2024/02/09 04:43:05;;;;;;;5.50;3.83;;;2.20;99.90;;;;;;5030514;28;21010;-61
2024/02/09 04:45:34;;;;;;;4.47;4.07;;;2.20;99.90;;;;;;5037049;28;20954;-60
2024/02/09 04:48:02;;;;;;;4.87;4.03;;;2.20;99.90;;;;;;5034493;28;21244;-59
2024/02/09 04:50:30;;;;;;;4.90;4.20;;;2.20;99.90;;;;;;5033947;28;20478;-59
2024/02/09 04:53:00;;;;;;;4.47;4.07;;;2.10;99.90;;;;;;5037647;28;20846;-59
2024/02/09 04:55:28;;;;;;;4.00;3.70;;;2.10;99.90;;;;;;5036240;28;20578;-58
2024/02/09 04:57:56;;;;;;;4.33;3.93;;;2.10;99.90;;;;;;5035384;28;20477;-60
2024/02/09 05:00:24;;;;;;;4.20;3.80;;;2.10;99.90;;;;;;5037072;28;20464;-59
2024/02/09 05:02:52;;;;;;;3.90;3.60;;;2.10;99.90;;;;;;5035939;28;21062;-59
2024/02/09 05:05:22;;;;;;;4.20;3.80;;;2.10;99.90;;;;;;5037426;28;20639;-59
2024/02/09 05:07:51;;;;;;;3.87;3.57;;;2.10;99.90;;;;;;5035172;28;20498;-59
2024/02/09 05:10:21;;;;;;;4.70;4.07;;;2.10;99.90;;;;;;5036909;28;20901;-59
2024/02/09 05:12:49;;;;;;;3.80;3.50;;;2.10;99.90;;;;;;5035906;28;20555;-59
2024/02/09 05:15:17;;;;;;;4.17;3.77;;;2.10;99.90;;;;;;5033172;28;20486;-60
2024/02/09 05:17:46;;;;;;;4.00;3.60;;;2.10;99.90;;;;;;5033004;28;20477;-60
2024/02/09 05:20:14;;;;;;;3.60;3.30;;;2.10;99.90;;;;;;5036621;28;20566;-60
2024/02/09 05:22:46;;;;;;;3.43;3.13;;;2.10;99.90;;;;;;5031972;28;20478;-60
2024/02/09 05:25:15;;;;;;;3.80;3.50;;;2.00;99.90;;;;;;5037636;28;20891;-58
2024/02/09 05:27:47;;;;;;;4.17;3.77;;;2.10;99.90;;;;;;5037841;28;20782;-59
2024/02/09 05:30:16;;;;;;;4.03;3.60;;;2.10;99.90;;;;;;5035985;28;20616;-60
2024/02/09 05:32:45;;;;;;;3.50;3.20;;;2.10;99.90;;;;;;5036618;28;20569;-60
2024/02/09 05:35:14;;;;;;;3.60;3.30;;;2.10;99.90;;;;;;5029285;28;20512;-60
2024/02/09 05:37:42;;;;;;;3.37;3.07;;;2.10;99.90;;;;;;5034540;28;20467;-60
2024/02/09 05:40:10;;;;;;;4.03;3.37;;;2.10;99.90;;;;;;5035334;28;20920;-59
2024/02/09 05:42:38;;;;;;;3.40;3.10;;;2.10;99.90;;;;;;5036175;28;20913;-61
2024/02/09 05:45:08;;;;;;;3.63;3.33;;;2.10;99.90;;;;;;5033348;28;21037;-61
2024/02/09 05:47:36;;;;;;;3.90;3.50;;;2.10;99.90;;;;;;5032835;28;20483;-60
2024/02/09 05:50:04;;;;;;;3.17;2.90;;;2.10;99.90;;;;;;5032676;28;20478;-60
2024/02/09 05:52:32;;;;;;;3.23;2.93;;;2.10;99.90;;;;;;5031560;28;20476;-60
2024/02/09 05:55:00;;;;;;;3.43;3.23;;;2.10;99.90;;;;;;5029539;28;20478;-60
2024/02/09 05:57:28;;;;;;;3.47;3.17;;;2.10;99.90;;;;;;5028130;28;21802;-60
2024/02/09 05:59:57;;;;;;;3.40;3.10;;;2.10;99.90;;;;;;5033068;28;20541;-61
2024/02/09 06:02:28;;;;;;;3.60;3.17;;;2.10;99.90;;;;;;5022285;28;20493;-60
2024/02/09 06:04:56;;;;;;;3.03;2.83;;;2.10;99.90;;;;;;5030885;28;20566;-60
2024/02/09 06:07:27;;;;;;;3.37;3.13;;;2.10;99.90;;;;;;5033053;28;20524;-60
2024/02/09 06:09:56;;;;;;;3.07;2.80;;;2.10;99.90;;;;;;5034823;28;20477;-59
2024/02/09 06:12:24;;;;;;;4.27;3.43;;;2.10;99.90;;;;;;5035282;28;20489;-60
2024/02/09 06:14:52;;;;;;;2.90;2.70;;;2.10;99.90;;;;;;5033983;28;20467;-60
2024/02/09 06:17:20;;;;;;;3.10;2.80;;;2.10;99.90;;;;;;5033148;28;20847;-59
2024/02/09 06:19:49;;;;;;;3.10;2.83;;;2.10;99.90;;;;;;5029572;28;20989;-60
2024/02/09 06:22:17;;;;;;;3.10;2.63;;;2.10;99.90;;;;;;5034098;28;20493;-59
2024/02/09 06:24:45;;;;;;;3.17;2.87;;;2.10;99.90;;;;;;5035724;28;20480;-60
2024/02/09 06:27:13;;;;;;;3.37;3.07;;;2.10;99.90;;;;;;5037090;28;21379;-60
2024/02/09 06:29:41;;;;;;;3.67;3.20;;;2.10;99.90;;;;;;5032101;28;20583;-60
2024/02/09 06:32:09;;;;;;;2.80;2.60;;;2.10;99.90;;;;;;5025422;28;20564;-59
2024/02/09 06:34:37;;;;;;;2.53;2.33;;;2.10;99.90;;;;;;5005792;28;20840;-60
2024/02/09 06:37:07;;;;;;;2.73;2.53;;;2.10;99.90;;;;;;5020424;28;20643;-59
2024/02/09 06:39:35;;;;;;;3.23;3.00;;;2.10;99.90;;;;;;5020332;28;20474;-59
2024/02/09 06:42:03;;;;;;;2.80;2.60;;;2.10;99.90;;;;;;5021707;28;20511;-59
2024/02/09 06:44:32;;;;;;;3.00;2.80;;;2.10;99.90;;;;;;5016797;28;20494;-59
2024/02/09 06:47:00;;;;;;;2.47;2.27;;;2.10;99.90;;;;;;5016078;28;20510;-59
2024/02/09 06:49:28;;;;;;;2.87;2.63;;;2.10;99.90;;;;;;5021485;28;20490;-59
2024/02/09 06:51:57;;;;;;;2.67;2.47;;;2.10;99.90;;;;;;5019991;28;20482;-60
2024/02/09 06:54:26;;;;;;;3.40;3.10;;;2.10;99.90;;;;;;5027938;28;20525;-60
2024/02/09 06:56:55;;;;;;;2.90;2.70;;;2.10;99.90;;;;;;5032861;28;21309;-59
2024/02/09 06:59:23;;;;;;;2.83;2.60;;;2.10;99.90;;;;;;5032002;28;20538;-60
2024/02/09 07:01:51;;;;;;;2.97;2.67;;;2.10;99.90;;;;;;5027690;28;20812;-59
2024/02/09 07:04:19;;;;;;;3.07;2.60;;;2.10;99.90;;;;;;5030536;28;21260;-60
2024/02/09 07:06:48;;;;;;;2.80;2.60;;;2.10;99.90;;;;;;5028111;28;20493;-61
2024/02/09 07:09:18;;;;;;;3.17;2.50;;;2.10;99.90;;;;;;5030092;28;20531;-60
2024/02/09 07:12:03;;;;;;;3.00;2.80;;;2.10;99.90;;;;;;5030913;28;20487;-59
2024/02/09 07:14:32;;;;;;;3.07;2.77;;;2.10;99.90;;;;;;5024491;28;20467;-60
2024/02/09 07:17:01;;;;;;;2.63;2.43;;;2.10;99.90;;;;;;5027507;28;20596;-59
2024/02/09 07:19:29;;;;;;;3.10;2.80;;;2.10;99.90;;;;;;5032020;28;20525;-59
2024/02/09 07:21:57;;;;;;;2.50;2.30;;;2.10;99.90;;;;;;5028251;28;20478;-60
2024/02/09 07:24:26;;;;;;;2.90;2.40;;;2.10;99.90;;;;;;5032221;28;20574;-60
2024/02/09 07:26:54;;;;;;;2.60;2.40;;;2.10;99.90;;;;;;5029790;28;20514;-60
2024/02/09 07:29:23;;;;;;;2.43;2.23;;;2.10;99.90;;;;;;5029033;28;20615;-60
2024/02/09 07:31:51;;;;;;;3.17;2.90;;;2.10;99.90;;;;;;5027486;28;20535;-60
2024/02/09 07:34:19;;;;;;;2.97;2.77;;;2.10;99.90;;;;;;5031605;28;20463;-60
2024/02/09 07:36:47;;;;;;;2.40;2.20;;;2.10;99.90;;;;;;5036882;28;20499;-60
2024/02/09 07:39:15;;;;;;;2.40;2.20;;;2.10;99.90;;;;;;5031550;28;20479;-58
2024/02/09 07:41:43;;;;;;;2.90;2.70;;;2.10;99.90;;;;;;5033599;28;20572;-59
2024/02/09 07:44:11;;;;;;;2.40;2.20;;;2.10;99.90;;;;;;5030180;28;20561;-59
2024/02/09 07:46:41;;;;;;;2.90;2.50;;;2.10;99.90;;;;;;5030836;28;20584;-60
2024/02/09 07:49:09;;;;;;;2.73;2.53;;;2.10;99.90;;;;;;5030168;28;20521;-61
2024/02/09 07:51:37;;;;;;;2.23;2.10;;;2.10;99.90;;;;;;5024228;28;20849;-59
2024/02/09 07:54:05;;;;;;;2.73;2.53;;;2.10;99.90;;;;;;5025524;28;20543;-60
2024/02/09 07:56:33;;;;;;;2.60;2.40;;;2.10;99.90;;;;;;5029162;28;20503;-60
2024/02/09 07:59:01;;;;;;;2.50;2.30;;;2.10;99.90;;;;;;5028292;28;20514;-59
2024/02/09 08:01:29;;;;;;;2.83;2.43;;;2.10;99.90;;;;;;5026917;28;20514;-60
2024/02/09 08:03:59;;;;;;;3.03;2.83;;;2.10;99.90;;;;;;5032339;28;21010;-60
2024/02/09 08:06:28;;;;;;;2.50;2.20;;;2.10;99.90;;;;;;5031610;28;20586;-59
2024/02/09 08:08:56;;;;;;;2.63;2.43;;;2.10;99.90;;;;;;5027969;28;20510;-60
2024/02/09 08:11:24;;;;;;;2.70;2.50;;;2.10;99.90;;;;;;5027102;28;20493;-61
2024/02/09 08:13:53;;;;;;;2.40;2.20;;;2.10;99.90;;;;;;5027081;28;20471;-60
2024/02/09 08:16:22;;;;;;;2.60;2.40;;;2.20;99.90;;;;;;5032412;28;20490;-60
2024/02/09 08:18:51;;;;;;;2.80;2.60;;;2.20;99.90;;;;;;5032974;28;20521;-59
2024/02/09 08:21:22;;;;;;;2.50;2.30;;;2.20;99.90;;;;;;5035213;28;20482;-61
2024/02/09 08:23:50;;;;;;;2.80;2.30;;;2.20;99.90;;;;;;5032061;28;20549;-61
2024/02/09 08:26:18;;;;;;;2.40;2.20;;;2.20;99.90;;;;;;5033322;28;20513;-61
2024/02/09 08:28:48;;;;;;;3.30;2.50;;;2.20;99.90;;;;;;5024805;28;20490;-60
2024/02/09 08:31:16;;;;;;;2.80;2.57;;;2.20;99.90;;;;;;5024472;28;20475;-61
2024/02/09 08:33:46;;;;;;;2.93;2.70;;;2.20;99.90;;;;;;5022809;28;20459;-61
2024/02/09 08:36:17;;;;;;;3.10;2.33;;;2.20;99.90;;;;;;5024766;28;20578;-61
2024/02/09 08:38:46;;;;;;;3.23;2.63;;;2.20;99.90;;;;;;5024400;28;20562;-61
2024/02/09 08:41:14;;;;;;;2.77;2.57;;;2.20;99.90;;;;;;5025451;28;20483;-60
2024/02/09 08:43:42;;;;;;;2.73;2.53;;;2.20;99.90;;;;;;5032526;28;20474;-60
2024/02/09 08:46:11;;;;;;;3.30;3.00;;;2.20;99.90;;;;;;5031845;28;21012;-61
2024/02/09 08:48:39;;;;;;;3.30;2.70;;;2.20;99.90;;;;;;5033845;28;20470;-61
2024/02/09 08:51:07;;;;;;;2.73;2.53;;;2.20;99.90;;;;;;5034243;28;20824;-60
2024/02/09 08:53:37;;;;;;;2.77;2.40;;;2.30;99.90;;;;;;5034534;28;20467;-60
2024/02/09 08:56:09;;;;;;;3.13;2.70;;;2.30;99.90;;;;;;5032300;28;20486;-60
2024/02/09 08:58:37;;;;;;;2.47;2.10;;;2.30;99.90;;;;;;5028526;28;21000;-61
2024/02/09 09:01:05;;;;;;;2.73;2.47;;;2.30;99.90;;;;;;5033558;28;20536;-60
2024/02/09 09:03:35;;;;;;;2.70;2.50;;;2.30;99.90;;;;;;5025245;28;21096;-60
2024/02/09 09:06:04;;;;;;;2.43;2.23;;;2.30;99.90;;;;;;5026908;28;20497;-60
2024/02/09 09:08:34;;;;;;;2.90;2.60;;;2.30;99.90;;;;;;5024744;28;21184;-60
2024/02/09 09:11:02;;;;;;;2.40;2.20;;;2.30;99.90;;;;;;5025635;28;20490;-59
2024/02/09 09:13:32;;;;;;;3.20;2.90;;;2.20;99.90;;;;;;5023798;28;20594;-60
2024/02/09 09:16:00;;;;;;;3.17;2.80;;;2.30;99.90;;;;;;5025498;28;20494;-60
2024/02/09 09:18:29;;;;;;;2.70;2.50;;;2.30;99.90;;;;;;5024733;28;20906;-60
2024/02/09 09:20:57;;;;;;;3.10;2.80;;;2.30;99.90;;;;;;5025847;28;20670;-60
2024/02/09 09:23:25;;;;;;;2.83;2.60;;;2.30;99.90;;;;;;5027345;28;20964;-61
2024/02/09 09:25:53;;;;;;;3.17;2.50;;;2.30;99.90;;;;;;5028598;28;20857;-60
2024/02/09 09:28:21;;;;;;;2.80;2.60;;;2.30;99.90;;;;;;5021748;28;20487;-60
2024/02/09 09:30:51;;;;;;;2.70;2.50;;;2.30;99.90;;;;;;5027604;28;20486;-60
2024/02/09 09:33:18;;;;;;;3.33;3.03;;;2.30;99.90;;;;;;5032966;28;21039;-59
2024/02/09 09:35:46;;;;;;;3.00;2.80;;;2.30;99.90;;;;;;5029710;28;21053;-60
2024/02/09 09:38:19;;;;;;;2.93;2.60;;;2.40;99.90;;;;;;5029513;28;20470;-60
2024/02/09 09:40:49;;;;;;;2.60;2.40;;;2.40;99.90;;;;;;5031037;28;20523;-59
2024/02/09 09:43:17;;;;;;;2.87;2.67;;;2.40;99.90;;;;;;5032176;28;20474;-60
2024/02/09 09:45:49;;;;;;;2.87;2.63;;;2.40;99.90;;;;;;5030204;28;20497;-61
2024/02/09 09:48:19;;;;;;;2.70;2.50;;;2.40;99.90;;;;;;5031623;28;20901;-59
2024/02/09 09:50:48;;;;;;;2.73;2.50;;;2.40;99.90;;;;;;5029057;28;20530;-58
2024/02/09 09:53:19;;;;;;;3.17;2.87;;;2.40;99.90;;;;;;5031385;28;20470;-59
2024/02/09 09:55:48;;;;;;;3.00;2.80;;;2.40;99.90;;;;;;5034017;28;20597;-61
2024/02/09 09:58:17;;;;;;;2.83;2.53;;;2.50;99.90;;;;;;5029091;28;20483;-60
2024/02/09 10:00:47;;;;;;;2.40;2.20;;;2.50;99.90;;;;;;5029058;28;20498;-60
2024/02/09 10:03:17;;;;;;;2.50;2.20;;;2.50;99.90;;;;;;5027899;28;20482;-59
2024/02/09 10:05:47;;;;;;;2.97;2.57;;;2.40;99.90;;;;;;5029299;28;20501;-60
2024/02/09 10:08:15;;;;;;;2.33;2.13;;;2.50;99.90;;;;;;5029444;28;20466;-60
2024/02/09 10:10:43;;;;;;;2.30;2.13;;;2.40;99.90;;;;;;5028559;28;20494;-60
2024/02/09 10:13:13;;;;;;;1.97;1.83;;;2.50;99.90;;;;;;5027041;28;20493;-59
2024/02/09 10:15:42;;;;;;;2.20;1.90;;;2.50;99.90;;;;;;5028220;28;21006;-61
2024/02/09 10:18:10;;;;;;;2.13;1.93;;;2.50;99.90;;;;;;5027988;28;20502;-60
2024/02/09 10:20:39;;;;;;;2.10;1.97;;;2.60;99.90;;;;;;5026729;28;20469;-59
2024/02/09 10:23:08;;;;;;;2.30;2.10;;;2.60;99.90;;;;;;5029009;28;20466;-59
2024/02/09 10:25:41;;;;;;;2.20;2.00;;;2.70;99.90;;;;;;5027143;28;20518;-61
2024/02/09 10:28:11;;;;;;;3.73;2.33;;;2.60;99.90;;;;;;5033868;28;20487;-60
2024/02/09 10:30:39;;;;;;;2.73;2.03;;;2.60;99.90;;;;;;5028520;28;20516;-60
2024/02/09 10:33:10;;;;;;;2.73;1.83;;;2.60;99.90;;;;;;5026973;28;20502;-60
2024/02/09 10:35:38;;;;;;;2.30;2.10;;;2.60;99.90;;;;;;5025866;28;20884;-60
2024/02/09 10:38:07;;;;;;;2.00;1.90;;;2.60;99.90;;;;;;5029816;28;20467;-60
2024/02/09 10:40:35;;;;;;;2.20;2.00;;;2.70;99.90;;;;;;5029457;28;20904;-59
2024/02/09 10:43:05;;;;;;;2.23;2.00;;;2.60;99.90;;;;;;5026836;28;20504;-60
2024/02/09 10:45:34;;;;;;;2.47;2.27;;;2.60;99.90;;;;;;5023410;28;20495;-60
2024/02/09 10:48:05;;;;;;;1.97;1.87;;;2.60;99.90;;;;;;5027744;28;20474;-60
2024/02/09 10:50:34;;;;;;;2.33;2.13;;;2.60;99.90;;;;;;5025589;28;20495;-60
2024/02/09 10:53:10;;;;;;;2.37;2.17;;;2.60;99.90;;;;;;5028107;28;20519;-59
2024/02/09 10:55:42;;;;;;;2.07;1.90;;;2.60;99.90;;;;;;5030159;28;20501;-60
2024/02/09 10:58:11;;;;;;;1.63;1.53;;;2.60;99.90;;;;;;5025809;28;20503;-60
2024/02/09 11:00:40;;;;;;;1.87;1.77;;;2.60;99.90;;;;;;5025264;28;20477;-60
2024/02/09 11:03:09;;;;;;;2.13;1.90;;;2.60;99.90;;;;;;5029478;28;20463;-63
2024/02/09 11:05:38;;;;;;;2.00;1.90;;;2.60;99.90;;;;;;5031209;28;20495;-62
2024/02/09 11:08:09;;;;;;;3.00;2.70;;;2.60;99.90;;;;;;5028640;28;20474;-61
2024/02/09 11:10:37;;;;;;;2.27;2.07;;;2.60;99.90;;;;;;5036512;28;20847;-60
2024/02/09 11:13:07;;;;;;;2.30;2.10;;;2.60;99.90;;;;;;5035540;28;20558;-59
2024/02/09 11:15:35;;;;;;;2.30;2.03;;;2.60;99.90;;;;;;5034771;28;20492;-59
2024/02/09 11:18:03;;;;;;;2.40;2.23;;;2.60;99.90;;;;;;5036544;28;20509;-60
2024/02/09 11:20:32;;;;;;;2.40;2.20;;;2.70;99.90;;;;;;5036333;28;20544;-60
2024/02/09 11:23:01;;;;;;;1.97;1.87;;;2.70;99.90;;;;;;5038167;28;20589;-60
2024/02/09 11:25:32;;;;;;;2.07;1.93;;;2.70;99.90;;;;;;5036882;28;20490;-60
2024/02/09 11:28:08;;;;;;;1.80;1.70;;;2.70;99.90;;;;;;5033732;28;20983;-60
2024/02/09 11:30:38;;;;;;;1.97;1.80;;;2.70;99.90;;;;;;5035467;28;21117;-60
2024/02/09 11:33:09;;;;;;;2.20;2.10;;;2.70;99.90;;;;;;5030027;28;21192;-61
2024/02/09 11:35:37;;;;;;;2.03;1.93;;;2.70;99.90;;;;;;5027960;28;20494;-60
2024/02/09 11:38:05;;;;;;;2.00;1.90;;;2.70;99.90;;;;;;5034326;28;20471;-60
2024/02/09 11:40:33;;;;;;;2.53;2.10;;;2.80;99.90;;;;;;5036042;28;20877;-60
2024/02/09 11:43:03;;;;;;;2.33;2.00;;;2.80;99.90;;;;;;5039509;28;20463;-60
2024/02/09 11:45:36;;;;;;;1.90;1.80;;;2.80;99.90;;;;;;5037472;28;21023;-60
2024/02/09 11:48:06;;;;;;;2.37;2.17;;;2.80;99.90;;;;;;5036318;28;20590;-60
2024/02/09 11:50:36;;;;;;;1.90;1.80;;;2.80;99.90;;;;;;5034261;28;20564;-60
2024/02/09 11:53:05;;;;;;;1.80;1.70;;;2.90;99.90;;;;;;5032680;28;20557;-60
2024/02/09 11:55:40;;;;;;;1.70;1.60;;;2.90;99.90;;;;;;5036190;28;20539;-59
2024/02/09 11:58:10;;;;;;;1.93;1.83;;;2.80;99.90;;;;;;5035107;28;20531;-59
2024/02/09 12:00:40;;;;;;;2.57;2.37;;;2.80;99.90;;;;;;5035090;28;20975;-59
2024/02/09 12:03:10;;;;;;;2.40;2.20;;;2.80;99.90;;;;;;5034834;28;20975;-59
2024/02/09 12:05:44;;;;;;;2.40;2.00;;;2.90;99.90;;;;;;5035660;28;20611;-59
2024/02/09 12:08:12;;;;;;;1.70;1.60;;;2.90;99.90;;;;;;5033111;28;20479;-59
2024/02/09 12:10:40;;;;;;;1.73;1.63;;;2.90;99.90;;;;;;5033912;28;20565;-59
2024/02/09 12:13:08;;;;;;;3.20;2.20;;;2.90;99.90;;;;;;5034065;28;20985;-60
2024/02/09 12:15:36;;;;;;;1.90;1.80;;;2.90;99.90;;;;;;5032336;28;20604;-59
2024/02/09 12:18:08;;;;;;;1.80;1.70;;;2.90;99.90;;;;;;5035513;28;20592;-59
2024/02/09 12:20:36;;;;;;;2.10;1.90;;;2.90;99.90;;;;;;5032215;28;20483;-59
2024/02/09 12:23:05;;;;;;;2.27;2.07;;;2.90;99.90;;;;;;5032510;28;20474;-59
2024/02/09 12:25:36;;;;;;;2.50;1.80;;;2.90;99.90;;;;;;5029938;28;20616;-59
2024/02/09 12:28:05;;;;;;;2.20;1.97;;;2.90;99.90;;;;;;5033154;28;20545;-59
2024/02/09 12:30:35;;;;;;;2.13;1.93;;;2.90;99.90;;;;;;5034234;28;20477;-59
2024/02/09 12:33:04;;;;;;;1.83;1.70;;;3.00;99.90;;;;;;5032875;28;20584;-60
2024/02/09 12:35:34;;;;;;;1.90;1.80;;;3.00;99.90;;;;;;5033796;28;20494;-60
2024/02/09 12:38:03;;;;;;;1.80;1.70;;;3.00;99.90;;;;;;5035366;28;20550;-60
2024/02/09 12:40:33;;;;;;;1.77;1.67;;;3.00;99.90;;;;;;5034104;28;20557;-60
2024/02/09 12:43:03;;;;;;;3.27;2.57;;;3.00;99.90;;;;;;5035324;28;20471;-59
2024/02/09 12:45:31;;;;;;;2.40;2.13;;;3.10;99.90;;;;;;5033354;28;21038;-60
2024/02/09 12:47:59;;;;;;;1.90;1.80;;;3.10;99.90;;;;;;5033897;28;20475;-60
2024/02/09 12:50:28;;;;;;;1.93;1.83;;;3.10;99.90;;;;;;5033318;28;20467;-60
2024/02/09 12:52:59;;;;;;;2.00;1.90;;;3.10;99.90;;;;;;5033009;28;20499;-60
2024/02/09 12:55:27;;;;;;;1.60;1.50;;;3.10;99.90;;;;;;5034457;28;20487;-60
2024/02/09 12:57:56;;;;;;;1.77;1.67;;;3.10;99.90;;;;;;5034733;28;21021;-60
2024/02/09 13:00:23;;;;;;;1.80;1.70;;;3.10;99.90;;;;;;5032715;28;20628;-60
2024/02/09 13:02:53;;;;;;;1.57;1.47;;;3.10;99.90;;;;;;5031086;28;20474;-59
2024/02/09 13:05:21;;;;;;;2.10;1.83;;;3.10;99.90;;;;;;5033297;28;20563;-60
2024/02/09 13:07:50;;;;;;;2.03;1.53;;;3.10;99.90;;;;;;5037030;28;20467;-60
2024/02/09 13:10:19;;;;;;;1.70;1.60;;;3.10;99.90;;;;;;5039159;28;20531;-60
2024/02/09 13:12:47;;;;;;;1.80;1.70;;;3.10;99.90;;;;;;5033721;28;20493;-60
2024/02/09 13:15:15;;;;;;;1.40;1.30;;;3.10;99.90;;;;;;5035688;28;21223;-60
2024/02/09 13:17:44;;;;;;;2.20;2.10;;;3.20;99.90;;;;;;5036004;28;20474;-60
2024/02/09 13:20:12;;;;;;;1.60;1.50;;;3.20;99.90;;;;;;5038458;28;21639;-60
2024/02/09 13:22:40;;;;;;;1.47;1.37;;;3.20;99.90;;;;;;5038990;28;20474;-60
2024/02/09 13:25:13;;;;;;;1.43;1.33;;;3.20;99.90;;;;;;5036485;28;20486;-60
2024/02/09 13:27:45;;;;;;;1.47;1.37;;;3.20;99.90;;;;;;5037585;28;20502;-60
2024/02/09 13:30:20;;;;;;;2.80;1.90;;;3.20;99.90;;;;;;5036696;28;20470;-60
2024/02/09 13:32:48;;;;;;;1.73;1.57;;;3.20;99.90;;;;;;5037312;28;20589;-60
2024/02/09 13:35:17;;;;;;;1.87;1.60;;;3.20;99.90;;;;;;5036283;28;21009;-60
2024/02/09 13:37:45;;;;;;;1.77;1.67;;;3.20;99.90;;;;;;5037456;28;20994;-60
2024/02/09 13:40:15;;;;;;;1.50;1.40;;;3.20;99.90;;;;;;5036006;28;20470;-60
2024/02/09 13:42:47;;;;;;;1.47;1.37;;;3.20;99.90;;;;;;5035440;28;20482;-60
2024/02/09 13:45:15;;;;;;;1.80;1.60;;;3.30;99.90;;;;;;5033553;28;20494;-61
2024/02/09 13:47:44;;;;;;;1.50;1.40;;;3.30;99.90;;;;;;5033526;28;20467;-61
2024/02/09 13:50:12;;;;;;;1.50;1.40;;;3.30;99.90;;;;;;5034966;28;20482;-61
2024/02/09 13:52:43;;;;;;;2.07;1.97;;;3.30;99.90;;;;;;5032480;28;20526;-61
2024/02/09 13:55:13;;;;;;;2.00;1.57;;;3.30;99.90;;;;;;5032581;28;20729;-61
2024/02/09 13:57:48;;;;;;;1.90;1.80;;;3.30;99.90;;;;;;5032620;28;20554;-61
2024/02/09 14:00:17;;;;;;;1.70;1.60;;;3.40;99.90;;;;;;5030158;28;20482;-60
2024/02/09 14:02:46;;;;;;;2.07;1.97;;;3.40;99.90;;;;;;5032366;28;20490;-60
2024/02/09 14:05:16;;;;;;;1.80;1.70;;;3.40;99.90;;;;;;5037162;28;20524;-61
2024/02/09 14:07:46;;;;;;;2.60;2.17;;;3.40;99.90;;;;;;5032309;28;20553;-60
2024/02/09 14:10:15;;;;;;;6.10;1.97;;;3.40;99.90;;;;;;5034269;28;20470;-61
2024/02/09 14:12:43;;;;;;;1.83;1.70;;;3.40;99.90;;;;;;5035192;28;20528;-60
2024/02/09 14:15:13;;;;;;;1.90;1.80;;;3.40;99.90;;;;;;5033348;28;20972;-61
2024/02/09 14:17:41;;;;;;;2.50;2.30;;;3.40;99.90;;;;;;5035194;28;20468;-59
2024/02/09 14:20:13;;;;;;;2.10;2.00;;;3.40;99.90;;;;;;5034439;28;21345;-60
2024/02/09 14:22:42;;;;;;;2.13;2.03;;;3.40;99.90;;;;;;5031505;28;20494;-60
2024/02/09 14:25:12;;;;;;;2.03;1.93;;;3.40;99.90;;;;;;5034286;28;20553;-61
2024/02/09 14:27:42;;;;;;;2.17;1.97;;;3.40;99.90;;;;;;5030197;28;20690;-62
2024/02/09 14:30:12;;;;;;;1.90;1.80;;;3.40;99.90;;;;;;5030893;28;20475;-61
2024/02/09 14:32:43;;;;;;;2.13;1.93;;;3.40;99.90;;;;;;5030967;28;20498;-61
2024/02/09 14:35:11;;;;;;;2.67;2.47;;;3.40;99.90;;;;;;5037335;28;20857;-61
2024/02/09 14:37:39;;;;;;;2.67;2.47;;;3.40;99.90;;;;;;5037894;28;20604;-61
2024/02/09 14:40:08;;;;;;;2.50;2.30;;;3.50;99.90;;;;;;5030040;28;20535;-61
2024/02/09 14:42:36;;;;;;;2.30;2.10;;;3.50;99.90;;;;;;5030875;28;20483;-61
2024/02/09 14:45:08;;;;;;;2.63;2.20;;;3.50;99.90;;;;;;5030624;28;20531;-61
2024/02/09 14:47:36;;;;;;;2.50;2.30;;;3.50;99.90;;;;;;5032604;28;20458;-61
2024/02/09 14:50:08;;;;;;;2.57;2.37;;;3.50;99.90;;;;;;5036589;28;20868;-61
2024/02/09 14:52:36;;;;;;;2.20;1.97;;;3.50;99.90;;;;;;5035842;28;20529;-61
2024/02/09 14:55:04;;;;;;;2.33;2.20;;;3.50;99.90;;;;;;5036572;28;20478;-61
2024/02/09 14:57:33;;;;;;;2.40;2.20;;;3.50;99.90;;;;;;5035292;28;20478;-61